sensor_id;sensor_type;location;lat;lon;timestamp;pressure;altitude;pressure_sealevel;temperature;humidity
19259;BME280;9763;48.780;9.212;2023-04-07T00:00:51;98425.72;;;11.83;64.72
19259;BME280;9763;48.780;9.212;2023-04-07T00:04:15;98428.94;;;11.86;64.79
19259;BME280;9763;48.780;9.212;2023-04-07T00:07:41;98424.25;;;11.92;65.28
19259;BME280;9763;48.780;9.212;2023-04-07T00:11:19;98420.34;;;11.97;65.38
19259;BME280;9763;48.780;9.212;2023-04-07T00:14:45;98415.72;;;12.01;65.67
19259;BME280;9763;48.780;9.212;2023-04-07T00:18:09;98416.38;;;12.04;65.66
19259;BME280;9763;48.780;9.212;2023-04-07T00:21:35;98408.41;;;12.06;65.84
19259;BME280;9763;48.780;9.212;2023-04-07T00:24:59;98399.09;;;12.02;65.88
19259;BME280;9763;48.780;9.212;2023-04-07T00:28:25;98393.88;;;12.02;66.19
19259;BME280;9763;48.780;9.212;2023-04-07T00:31:50;98396.59;;;12.00;66.36
19259;BME280;9763;48.780;9.212;2023-04-07T00:35:14;98386.34;;;11.97;66.42
19259;BME280;9763;48.780;9.212;2023-04-07T00:38:37;98381.34;;;11.94;66.34
19259;BME280;9763;48.780;9.212;2023-04-07T00:42:02;98377.66;;;11.97;66.58
19259;BME280;9763;48.780;9.212;2023-04-07T00:45:26;98372.66;;;11.94;66.76
19259;BME280;9763;48.780;9.212;2023-04-07T00:48:52;98378.38;;;11.99;66.94
19259;BME280;9763;48.780;9.212;2023-04-07T00:52:15;98369.81;;;11.97;67.00
19259;BME280;9763;48.780;9.212;2023-04-07T00:55:39;98366.50;;;11.95;67.20
19259;BME280;9763;48.780;9.212;2023-04-07T00:59:04;98360.53;;;11.93;67.31
19259;BME280;9763;48.780;9.212;2023-04-07T01:02:36;98360.94;;;11.86;67.29
19259;BME280;9763;48.780;9.212;2023-04-07T01:06:07;98357.84;;;11.81;67.53
19259;BME280;9763;48.780;9.212;2023-04-07T01:09:37;98335.97;;;11.70;68.02
19259;BME280;9763;48.780;9.212;2023-04-07T01:13:17;98341.53;;;11.78;67.82
19259;BME280;9763;48.780;9.212;2023-04-07T01:16:49;98342.88;;;11.71;68.20
19259;BME280;9763;48.780;9.212;2023-04-07T01:20:22;98342.75;;;11.72;68.45
19259;BME280;9763;48.780;9.212;2023-04-07T01:24:41;98336.41;;;11.76;69.29
19259;BME280;9763;48.780;9.212;2023-04-07T01:28:29;98330.13;;;11.79;68.70
19259;BME280;9763;48.780;9.212;2023-04-07T01:31:59;98328.13;;;11.82;68.91
19259;BME280;9763;48.780;9.212;2023-04-07T01:35:23;98314.53;;;11.77;68.98
19259;BME280;9763;48.780;9.212;2023-04-07T01:38:50;98328.00;;;11.84;69.06
19259;BME280;9763;48.780;9.212;2023-04-07T01:42:15;98328.00;;;11.84;68.74
19259;BME280;9763;48.780;9.212;2023-04-07T01:45:41;98316.00;;;11.81;68.81
19259;BME280;9763;48.780;9.212;2023-04-07T01:49:07;98319.31;;;11.83;68.88
19259;BME280;9763;48.780;9.212;2023-04-07T01:52:31;98309.69;;;11.84;69.67
19259;BME280;9763;48.780;9.212;2023-04-07T01:55:55;98304.25;;;11.87;69.33
19259;BME280;9763;48.780;9.212;2023-04-07T01:59:19;98303.53;;;11.85;69.62
19259;BME280;9763;48.780;9.212;2023-04-07T02:02:46;98306.25;;;11.83;69.80
19259;BME280;9763;48.780;9.212;2023-04-07T02:06:18;98309.69;;;11.84;69.98
19259;BME280;9763;48.780;9.212;2023-04-07T02:09:43;98309.69;;;11.84;69.98
19259;BME280;9763;48.780;9.212;2023-04-07T02:13:15;98306.97;;;11.85;70.07
19259;BME280;9763;48.780;9.212;2023-04-07T02:16:41;98302.56;;;11.86;69.95
19259;BME280;9763;48.780;9.212;2023-04-07T02:20:11;98295.47;;;11.88;70.00
19259;BME280;9763;48.780;9.212;2023-04-07T02:23:36;98285.94;;;11.87;70.38
19259;BME280;9763;48.780;9.212;2023-04-07T02:27:00;98285.84;;;11.88;70.03
19259;BME280;9763;48.780;9.212;2023-04-07T02:30:24;98288.34;;;11.90;70.39
19259;BME280;9763;48.780;9.212;2023-04-07T02:33:48;98284.78;;;11.91;70.23
19259;BME280;9763;48.780;9.212;2023-04-07T02:37:12;98284.56;;;11.94;70.46
19259;BME280;9763;48.780;9.212;2023-04-07T02:40:37;98276.47;;;11.97;70.28
19259;BME280;9763;48.780;9.212;2023-04-07T02:44:01;98275.44;;;12.00;70.65
19259;BME280;9763;48.780;9.212;2023-04-07T02:47:24;98272.91;;;11.98;70.55
19259;BME280;9763;48.780;9.212;2023-04-07T02:50:48;98270.31;;;11.98;70.85
19259;BME280;9763;48.780;9.212;2023-04-07T02:54:12;98265.91;;;11.99;70.70
19259;BME280;9763;48.780;9.212;2023-04-07T02:57:37;98273.75;;;11.99;71.16
19259;BME280;9763;48.780;9.212;2023-04-07T03:01:07;98267.78;;;11.97;70.87
19259;BME280;9763;48.780;9.212;2023-04-07T03:04:31;98261.03;;;11.94;70.79
19259;BME280;9763;48.780;9.212;2023-04-07T03:07:56;98263.75;;;11.93;71.23
19259;BME280;9763;48.780;9.212;2023-04-07T03:11:19;98259.56;;;11.90;71.24
19259;BME280;9763;48.780;9.212;2023-04-07T03:14:44;98256.03;;;11.91;71.26
19259;BME280;9763;48.780;9.212;2023-04-07T03:18:09;98250.78;;;11.91;71.24
19259;BME280;9763;48.780;9.212;2023-04-07T03:21:36;98251.63;;;11.92;71.08
19259;BME280;9763;48.780;9.212;2023-04-07T03:25:00;98242.94;;;11.91;71.36
19259;BME280;9763;48.780;9.212;2023-04-07T03:28:24;98247.34;;;11.90;71.29
19259;BME280;9763;48.780;9.212;2023-04-07T03:31:50;98244.63;;;11.92;72.01
19259;BME280;9763;48.780;9.212;2023-04-07T03:35:18;98245.56;;;11.91;71.88
19259;BME280;9763;48.780;9.212;2023-04-07T03:38:42;98238.75;;;11.88;71.59
19259;BME280;9763;48.780;9.212;2023-04-07T03:42:07;98236.25;;;11.87;71.52
19259;BME280;9763;48.780;9.212;2023-04-07T03:45:32;98231.88;;;11.87;71.95
19259;BME280;9763;48.780;9.212;2023-04-07T03:48:57;98235.41;;;11.86;71.87
19259;BME280;9763;48.780;9.212;2023-04-07T03:52:21;98235.41;;;11.86;71.55
19259;BME280;9763;48.780;9.212;2023-04-07T03:55:50;98231.13;;;11.85;71.95
19259;BME280;9763;48.780;9.212;2023-04-07T03:59:24;98227.78;;;11.83;71.71
19259;BME280;9763;48.780;9.212;2023-04-07T04:02:57;98223.41;;;11.84;71.31
19259;BME280;9763;48.780;9.212;2023-04-07T04:06:22;98227.00;;;11.83;71.34
19259;BME280;9763;48.780;9.212;2023-04-07T04:09:49;98225.31;;;11.82;71.03
19259;BME280;9763;48.780;9.212;2023-04-07T04:13:13;98227.09;;;11.81;70.68
19259;BME280;9763;48.780;9.212;2023-04-07T04:16:38;98223.75;;;11.79;69.98
19259;BME280;9763;48.780;9.212;2023-04-07T04:20:15;98217.59;;;11.80;69.57
19259;BME280;9763;48.780;9.212;2023-04-07T04:23:44;98229.59;;;11.83;69.44
19259;BME280;9763;48.780;9.212;2023-04-07T04:27:09;98219.25;;;11.81;69.34
19259;BME280;9763;48.780;9.212;2023-04-07T04:30:34;98216.63;;;11.81;68.74
19259;BME280;9763;48.780;9.212;2023-04-07T04:33:58;98211.41;;;11.81;68.01
19259;BME280;9763;48.780;9.212;2023-04-07T04:37:24;98220.31;;;11.79;67.29
19259;BME280;9763;48.780;9.212;2023-04-07T04:40:49;98212.69;;;11.76;66.97
19259;BME280;9763;48.780;9.212;2023-04-07T04:44:19;98212.16;;;11.71;66.34
19259;BME280;9763;48.780;9.212;2023-04-07T04:47:43;98215.94;;;11.67;66.02
19259;BME280;9763;48.780;9.212;2023-04-07T04:51:08;98215.94;;;11.67;65.88
19259;BME280;9763;48.780;9.212;2023-04-07T04:54:34;98220.31;;;11.66;65.69
19259;BME280;9763;48.780;9.212;2023-04-07T04:57:59;98222.00;;;11.67;65.25
19259;BME280;9763;48.780;9.212;2023-04-07T05:01:39;98216.66;;;11.69;65.06
19259;BME280;9763;48.780;9.212;2023-04-07T05:05:07;98216.03;;;11.65;64.79
19259;BME280;9763;48.780;9.212;2023-04-07T05:08:32;98219.50;;;11.66;63.95
19259;BME280;9763;48.780;9.212;2023-04-07T05:11:56;98222.09;;;11.66;64.34
19259;BME280;9763;48.780;9.212;2023-04-07T05:15:23;98217.72;;;11.66;64.03
19259;BME280;9763;48.780;9.212;2023-04-07T05:18:48;98218.44;;;11.68;63.76
19259;BME280;9763;48.780;9.212;2023-04-07T05:22:13;98219.16;;;11.70;63.73
19259;BME280;9763;48.780;9.212;2023-04-07T05:25:42;98219.03;;;11.72;63.25
19259;BME280;9763;48.780;9.212;2023-04-07T05:29:06;98227.41;;;11.77;63.37
19259;BME280;9763;48.780;9.212;2023-04-07T05:32:31;98231.25;;;11.84;62.89
19259;BME280;9763;48.780;9.212;2023-04-07T05:36:00;98228.09;;;11.92;63.17
19259;BME280;9763;48.780;9.212;2023-04-07T05:39:26;98227.63;;;11.98;62.60
19259;BME280;9763;48.780;9.212;2023-04-07T05:42:51;98224.56;;;12.04;62.28
19259;BME280;9763;48.780;9.212;2023-04-07T05:46:15;98216.63;;;12.05;62.41
19259;BME280;9763;48.780;9.212;2023-04-07T05:49:48;98214.72;;;12.07;61.68
19259;BME280;9763;48.780;9.212;2023-04-07T05:53:12;98220.53;;;12.11;61.81
19259;BME280;9763;48.780;9.212;2023-04-07T05:56:36;98216.88;;;12.13;61.74
19259;BME280;9763;48.780;9.212;2023-04-07T06:00:01;98220.00;;;12.18;61.95
19259;BME280;9763;48.780;9.212;2023-04-07T06:03:35;98225.59;;;12.25;61.46
19259;BME280;9763;48.780;9.212;2023-04-07T06:07:08;98224.31;;;12.31;61.46
19259;BME280;9763;48.780;9.212;2023-04-07T06:10:35;98225.38;;;12.39;61.27
19259;BME280;9763;48.780;9.212;2023-04-07T06:13:58;98230.97;;;12.46;61.60
19259;BME280;9763;48.780;9.212;2023-04-07T06:17:22;98233.25;;;12.50;61.40
19259;BME280;9763;48.780;9.212;2023-04-07T06:20:47;98230.31;;;12.55;61.03
19259;BME280;9763;48.780;9.212;2023-04-07T06:24:11;98233.41;;;12.60;61.32
19259;BME280;9763;48.780;9.212;2023-04-07T06:27:36;98230.44;;;12.65;60.74
19259;BME280;9763;48.780;9.212;2023-04-07T06:31:00;98229.94;;;12.71;60.60
19259;BME280;9763;48.780;9.212;2023-04-07T06:34:24;98229.63;;;12.75;60.70
19259;BME280;9763;48.780;9.212;2023-04-07T06:37:49;98238.91;;;12.79;60.46
19259;BME280;9763;48.780;9.212;2023-04-07T06:41:14;98237.72;;;12.83;60.55
19259;BME280;9763;48.780;9.212;2023-04-07T06:44:39;98229.50;;;12.88;60.16
19259;BME280;9763;48.780;9.212;2023-04-07T06:48:03;98226.28;;;12.95;60.52
19259;BME280;9763;48.780;9.212;2023-04-07T06:51:26;98229.16;;;13.04;60.41
19259;BME280;9763;48.780;9.212;2023-04-07T06:54:50;98217.88;;;13.14;59.70
19259;BME280;9763;48.780;9.212;2023-04-07T06:58:15;98217.03;;;13.25;59.57
19259;BME280;9763;48.780;9.212;2023-04-07T07:01:38;98213.31;;;13.39;59.46
19259;BME280;9763;48.780;9.212;2023-04-07T07:05:04;98216.63;;;13.52;59.35
19259;BME280;9763;48.780;9.212;2023-04-07T07:08:28;98219.78;;;13.66;59.35
19259;BME280;9763;48.780;9.212;2023-04-07T07:11:52;98216.75;;;13.82;59.73
19259;BME280;9763;48.780;9.212;2023-04-07T07:15:17;98211.94;;;13.98;58.89
19259;BME280;9763;48.780;9.212;2023-04-07T07:18:41;98215.06;;;14.13;59.32
19259;BME280;9763;48.780;9.212;2023-04-07T07:22:05;98213.09;;;14.26;58.87
19259;BME280;9763;48.780;9.212;2023-04-07T07:25:28;98219.59;;;14.43;58.91
19259;BME280;9763;48.780;9.212;2023-04-07T07:28:52;98217.25;;;14.61;58.83
19259;BME280;9763;48.780;9.212;2023-04-07T07:32:17;98220.34;;;14.75;58.68
19259;BME280;9763;48.780;9.212;2023-04-07T07:35:41;98218.22;;;14.90;58.17
19259;BME280;9763;48.780;9.212;2023-04-07T07:39:06;98220.66;;;15.12;58.50
19259;BME280;9763;48.780;9.212;2023-04-07T07:42:30;98220.44;;;15.35;57.71
19259;BME280;9763;48.780;9.212;2023-04-07T07:45:54;98223.31;;;15.62;57.86
19259;BME280;9763;48.780;9.212;2023-04-07T07:49:18;98223.50;;;15.90;57.85
19259;BME280;9763;48.780;9.212;2023-04-07T07:52:43;98222.25;;;16.13;57.55
19259;BME280;9763;48.780;9.212;2023-04-07T07:56:07;98235.97;;;16.36;57.89
19259;BME280;9763;48.780;9.212;2023-04-07T07:59:31;98228.72;;;16.67;57.62
19259;BME280;9763;48.780;9.212;2023-04-07T08:02:55;98229.25;;;17.17;57.22
19259;BME280;9763;48.780;9.212;2023-04-07T08:06:20;98221.22;;;17.91;57.89
19259;BME280;9763;48.780;9.212;2023-04-07T08:09:44;98225.53;;;18.53;57.54
19259;BME280;9763;48.780;9.212;2023-04-07T08:13:08;98217.38;;;19.24;57.25
19259;BME280;9763;48.780;9.212;2023-04-07T08:16:31;98221.31;;;20.53;55.92
19259;BME280;9763;48.780;9.212;2023-04-07T08:19:55;98221.84;;;21.67;54.94
19259;BME280;9763;48.780;9.212;2023-04-07T08:23:20;98214.72;;;22.36;54.48
19259;BME280;9763;48.780;9.212;2023-04-07T08:26:43;98220.66;;;22.98;53.74
19259;BME280;9763;48.780;9.212;2023-04-07T08:30:08;98220.63;;;23.43;52.39
19259;BME280;9763;48.780;9.212;2023-04-07T08:33:31;98220.97;;;24.05;51.92
19259;BME280;9763;48.780;9.212;2023-04-07T08:36:55;98228.00;;;25.39;52.01
19259;BME280;9763;48.780;9.212;2023-04-07T08:40:20;98215.22;;;26.56;50.59
19259;BME280;9763;48.780;9.212;2023-04-07T08:43:43;98215.06;;;27.42;48.81
19259;BME280;9763;48.780;9.212;2023-04-07T08:47:11;98214.13;;;28.44;48.19
19259;BME280;9763;48.780;9.212;2023-04-07T08:50:35;98208.28;;;28.78;47.38
19259;BME280;9763;48.780;9.212;2023-04-07T08:54:09;98208.28;;;28.53;46.27
19259;BME280;9763;48.780;9.212;2023-04-07T08:57:34;98211.06;;;28.09;45.56
19259;BME280;9763;48.780;9.212;2023-04-07T09:00:59;98211.38;;;27.36;45.40
19259;BME280;9763;48.780;9.212;2023-04-07T09:04:23;98217.47;;;26.66;44.59
19259;BME280;9763;48.780;9.212;2023-04-07T09:07:48;98218.84;;;26.15;45.64
19259;BME280;9763;48.780;9.212;2023-04-07T09:11:12;98220.84;;;26.00;46.01
19259;BME280;9763;48.780;9.212;2023-04-07T09:14:36;98224.34;;;26.01;45.07
19259;BME280;9763;48.780;9.212;2023-04-07T09:18:00;98203.34;;;25.91;45.30
19259;BME280;9763;48.780;9.212;2023-04-07T09:21:24;98224.38;;;26.14;44.78
19259;BME280;9763;48.780;9.212;2023-04-07T09:24:49;98219.31;;;26.65;44.36
19259;BME280;9763;48.780;9.212;2023-04-07T09:28:13;98213.47;;;27.28;43.90
19259;BME280;9763;48.780;9.212;2023-04-07T09:31:49;98216.50;;;27.44;43.17
19259;BME280;9763;48.780;9.212;2023-04-07T09:35:13;98212.16;;;27.43;43.17
19259;BME280;9763;48.780;9.212;2023-04-07T09:38:38;98208.84;;;27.61;43.30
19259;BME280;9763;48.780;9.212;2023-04-07T09:42:06;98213.06;;;27.82;42.38
19259;BME280;9763;48.780;9.212;2023-04-07T09:45:31;98220.38;;;27.55;42.37
19259;BME280;9763;48.780;9.212;2023-04-07T09:49:03;98212.38;;;27.42;42.08
19259;BME280;9763;48.780;9.212;2023-04-07T09:52:48;98212.50;;;26.89;42.13
19259;BME280;9763;48.780;9.212;2023-04-07T09:56:14;98220.50;;;26.16;42.48
19259;BME280;9763;48.780;9.212;2023-04-07T09:59:40;98222.84;;;25.72;42.51
19259;BME280;9763;48.780;9.212;2023-04-07T10:03:07;98224.69;;;25.37;42.86
19259;BME280;9763;48.780;9.212;2023-04-07T10:06:32;98219.03;;;24.84;42.63
19259;BME280;9763;48.780;9.212;2023-04-07T10:09:56;98220.63;;;24.51;42.84
19259;BME280;9763;48.780;9.212;2023-04-07T10:13:20;98213.00;;;24.48;43.33
19259;BME280;9763;48.780;9.212;2023-04-07T10:16:46;98217.31;;;24.76;42.59
19259;BME280;9763;48.780;9.212;2023-04-07T10:20:11;98216.41;;;24.63;42.59
19259;BME280;9763;48.780;9.212;2023-04-07T10:23:55;98215.94;;;24.31;42.90
19259;BME280;9763;48.780;9.212;2023-04-07T10:27:30;98218.91;;;24.00;42.90
19259;BME280;9763;48.780;9.212;2023-04-07T10:30:55;98223.16;;;23.80;42.80
19259;BME280;9763;48.780;9.212;2023-04-07T10:34:57;98226.06;;;23.79;42.22
19259;BME280;9763;48.780;9.212;2023-04-07T10:38:21;98220.63;;;24.29;42.49
19259;BME280;9763;48.780;9.212;2023-04-07T10:41:46;98228.81;;;24.98;41.62
19259;BME280;9763;48.780;9.212;2023-04-07T10:45:10;98209.84;;;26.63;40.88
19259;BME280;9763;48.780;9.212;2023-04-07T10:48:34;98210.56;;;27.29;38.93
19259;BME280;9763;48.780;9.212;2023-04-07T10:52:22;98216.44;;;26.67;39.13
19259;BME280;9763;48.780;9.212;2023-04-07T10:55:53;98213.25;;;26.04;40.07
19259;BME280;9763;48.780;9.212;2023-04-07T10:59:18;98215.72;;;25.44;40.43
19259;BME280;9763;48.780;9.212;2023-04-07T11:02:48;98215.94;;;25.08;40.35
19259;BME280;9763;48.780;9.212;2023-04-07T11:06:13;98201.56;;;24.82;40.52
19259;BME280;9763;48.780;9.212;2023-04-07T11:09:37;98218.16;;;24.77;40.19
19259;BME280;9763;48.780;9.212;2023-04-07T11:13:04;98214.88;;;24.54;40.57
19259;BME280;9763;48.780;9.212;2023-04-07T11:16:40;98215.94;;;24.31;39.91
19259;BME280;9763;48.780;9.212;2023-04-07T11:20:06;98212.44;;;24.31;40.69
19259;BME280;9763;48.780;9.212;2023-04-07T11:23:38;98212.81;;;24.98;40.00
19259;BME280;9763;48.780;9.212;2023-04-07T11:27:02;98211.50;;;25.22;39.03
19259;BME280;9763;48.780;9.212;2023-04-07T11:30:26;98203.00;;;24.84;39.57
19259;BME280;9763;48.780;9.212;2023-04-07T11:33:53;98217.84;;;24.37;39.77
19259;BME280;9763;48.780;9.212;2023-04-07T11:37:22;98210.31;;;23.84;39.83
19259;BME280;9763;48.780;9.212;2023-04-07T11:40:46;98224.25;;;23.35;40.53
19259;BME280;9763;48.780;9.212;2023-04-07T11:44:11;98223.31;;;22.84;40.70
19259;BME280;9763;48.780;9.212;2023-04-07T11:47:36;98233.72;;;22.33;41.18
19259;BME280;9763;48.780;9.212;2023-04-07T11:51:03;98234.50;;;21.88;41.37
19259;BME280;9763;48.780;9.212;2023-04-07T11:54:27;98244.50;;;21.47;41.33
19259;BME280;9763;48.780;9.212;2023-04-07T11:57:51;98252.56;;;21.06;41.78
19259;BME280;9763;48.780;9.212;2023-04-07T12:01:15;98247.00;;;20.69;41.67
19259;BME280;9763;48.780;9.212;2023-04-07T12:04:55;98251.78;;;20.25;42.34
19259;BME280;9763;48.780;9.212;2023-04-07T12:08:21;98251.69;;;19.76;42.46
19259;BME280;9763;48.780;9.212;2023-04-07T12:11:58;98252.50;;;19.34;42.13
19259;BME280;9763;48.780;9.212;2023-04-07T12:15:23;98261.38;;;18.91;42.65
19259;BME280;9763;48.780;9.212;2023-04-07T12:18:46;98261.50;;;18.46;43.21
19259;BME280;9763;48.780;9.212;2023-04-07T12:22:10;98265.19;;;18.00;43.80
19259;BME280;9763;48.780;9.212;2023-04-07T12:25:36;98279.88;;;17.57;44.97
19259;BME280;9763;48.780;9.212;2023-04-07T12:28:59;98275.31;;;17.22;44.93
19259;BME280;9763;48.780;9.212;2023-04-07T12:32:26;98277.78;;;16.97;45.72
19259;BME280;9763;48.780;9.212;2023-04-07T12:35:50;98287.41;;;16.78;45.81
19259;BME280;9763;48.780;9.212;2023-04-07T12:39:14;98286.16;;;16.63;45.93
19259;BME280;9763;48.780;9.212;2023-04-07T12:42:40;98286.56;;;16.49;46.15
19259;BME280;9763;48.780;9.212;2023-04-07T12:46:04;98289.06;;;16.41;46.35
19259;BME280;9763;48.780;9.212;2023-04-07T12:49:28;98285.31;;;16.34;46.28
19259;BME280;9763;48.780;9.212;2023-04-07T12:52:51;98284.59;;;16.32;46.36
19259;BME280;9763;48.780;9.212;2023-04-07T12:56:16;98282.53;;;16.35;46.56
19259;BME280;9763;48.780;9.212;2023-04-07T12:59:41;98279.75;;;16.46;45.87
19259;BME280;9763;48.780;9.212;2023-04-07T13:03:04;98274.06;;;16.61;46.01
19259;BME280;9763;48.780;9.212;2023-04-07T13:06:28;98269.06;;;16.67;46.12
19259;BME280;9763;48.780;9.212;2023-04-07T13:09:53;98279.50;;;16.78;45.79
19259;BME280;9763;48.780;9.212;2023-04-07T13:13:16;98272.38;;;16.88;46.06
19259;BME280;9763;48.780;9.212;2023-04-07T13:16:41;98275.81;;;16.99;45.52
19259;BME280;9763;48.780;9.212;2023-04-07T13:20:07;98274.41;;;17.14;46.04
19259;BME280;9763;48.780;9.212;2023-04-07T13:23:30;98273.81;;;17.20;46.01
19259;BME280;9763;48.780;9.212;2023-04-07T13:27:04;98276.03;;;17.24;45.48
19259;BME280;9763;48.780;9.212;2023-04-07T13:30:27;98268.78;;;17.26;45.41
19259;BME280;9763;48.780;9.212;2023-04-07T13:33:52;98274.72;;;17.28;45.79
19259;BME280;9763;48.780;9.212;2023-04-07T13:37:16;98275.88;;;17.26;45.68
19259;BME280;9763;48.780;9.212;2023-04-07T13:40:40;98282.13;;;17.15;45.77
19259;BME280;9763;48.780;9.212;2023-04-07T13:44:06;98246.59;;;16.82;45.67
19259;BME280;9763;48.780;9.212;2023-04-07T13:47:29;98274.88;;;16.90;45.76
19259;BME280;9763;48.780;9.212;2023-04-07T13:50:56;98267.53;;;16.84;45.56
19259;BME280;9763;48.780;9.212;2023-04-07T13:54:20;98272.66;;;16.85;46.05
19259;BME280;9763;48.780;9.212;2023-04-07T13:57:44;98257.81;;;16.84;45.80
19259;BME280;9763;48.780;9.212;2023-04-07T14:01:07;98267.25;;;16.87;46.07
19259;BME280;9763;48.780;9.212;2023-04-07T14:04:31;98260.19;;;16.87;45.76
19259;BME280;9763;48.780;9.212;2023-04-07T14:07:56;98269.44;;;16.91;46.45
19259;BME280;9763;48.780;9.212;2023-04-07T14:11:20;98268.88;;;16.98;45.79
19259;BME280;9763;48.780;9.212;2023-04-07T14:14:44;98267.88;;;17.08;46.32
19259;BME280;9763;48.780;9.212;2023-04-07T14:18:07;98266.31;;;17.15;45.52
19259;BME280;9763;48.780;9.212;2023-04-07T14:21:32;98263.41;;;17.18;46.14
19259;BME280;9763;48.780;9.212;2023-04-07T14:24:57;98268.94;;;17.25;45.36
19259;BME280;9763;48.780;9.212;2023-04-07T14:28:21;98260.78;;;17.46;45.36
19259;BME280;9763;48.780;9.212;2023-04-07T14:31:44;98265.84;;;17.67;45.76
19259;BME280;9763;48.780;9.212;2023-04-07T14:35:10;98259.84;;;17.74;45.67
19259;BME280;9763;48.780;9.212;2023-04-07T14:38:34;98269.50;;;17.83;45.25
19259;BME280;9763;48.780;9.212;2023-04-07T14:41:59;98261.50;;;17.93;45.48
19259;BME280;9763;48.780;9.212;2023-04-07T14:45:22;98261.78;;;17.90;45.08
19259;BME280;9763;48.780;9.212;2023-04-07T14:48:46;98262.56;;;17.82;45.54
19259;BME280;9763;48.780;9.212;2023-04-07T14:52:10;98263.97;;;17.77;45.38
19259;BME280;9763;48.780;9.212;2023-04-07T14:55:35;98268.72;;;17.73;45.78
19259;BME280;9763;48.780;9.212;2023-04-07T14:59:00;98263.88;;;17.69;45.43
19259;BME280;9763;48.780;9.212;2023-04-07T15:02:24;98263.63;;;17.62;45.57
19259;BME280;9763;48.780;9.212;2023-04-07T15:05:50;98267.53;;;17.58;45.48
19259;BME280;9763;48.780;9.212;2023-04-07T15:09:14;98275.88;;;17.53;45.47
19259;BME280;9763;48.780;9.212;2023-04-07T15:12:38;98276.34;;;17.49;45.64
19259;BME280;9763;48.780;9.212;2023-04-07T15:16:11;98281.47;;;17.41;46.19
19259;BME280;9763;48.780;9.212;2023-04-07T15:19:35;98275.00;;;17.35;46.11
19259;BME280;9763;48.780;9.212;2023-04-07T15:22:59;98283.94;;;17.24;45.64
19259;BME280;9763;48.780;9.212;2023-04-07T15:26:22;98279.81;;;17.12;45.58
19259;BME280;9763;48.780;9.212;2023-04-07T15:29:46;98281.47;;;17.04;45.96
19259;BME280;9763;48.780;9.212;2023-04-07T15:33:11;98280.53;;;16.95;45.96
19259;BME280;9763;48.780;9.212;2023-04-07T15:36:35;98276.13;;;16.86;45.84
19259;BME280;9763;48.780;9.212;2023-04-07T15:39:59;98279.31;;;16.80;45.82
19259;BME280;9763;48.780;9.212;2023-04-07T15:43:23;98281.53;;;16.84;46.27
19259;BME280;9763;48.780;9.212;2023-04-07T15:46:47;98289.69;;;16.91;45.98
19259;BME280;9763;48.780;9.212;2023-04-07T15:50:12;98287.63;;;16.95;46.03
19259;BME280;9763;48.780;9.212;2023-04-07T15:53:35;98288.72;;;16.92;46.64
19259;BME280;9763;48.780;9.212;2023-04-07T15:56:59;98291.22;;;16.93;46.52
19259;BME280;9763;48.780;9.212;2023-04-07T16:00:23;98289.84;;;16.99;46.26
19259;BME280;9763;48.780;9.212;2023-04-07T16:03:47;98292.88;;;17.04;46.04
19259;BME280;9763;48.780;9.212;2023-04-07T16:07:13;98298.97;;;17.05;46.26
19259;BME280;9763;48.780;9.212;2023-04-07T16:10:36;98294.97;;;17.01;46.47
19259;BME280;9763;48.780;9.212;2023-04-07T16:14:00;98301.63;;;16.95;46.23
19259;BME280;9763;48.780;9.212;2023-04-07T16:17:24;98304.56;;;16.92;46.45
19259;BME280;9763;48.780;9.212;2023-04-07T16:20:48;98309.28;;;16.88;46.67
19259;BME280;9763;48.780;9.212;2023-04-07T16:24:13;98306.09;;;16.85;46.30
19259;BME280;9763;48.780;9.212;2023-04-07T16:27:37;98301.53;;;16.77;46.36
19259;BME280;9763;48.780;9.212;2023-04-07T16:31:01;98317.22;;;16.69;46.19
19259;BME280;9763;48.780;9.212;2023-04-07T16:34:27;98312.88;;;16.58;46.30
19259;BME280;9763;48.780;9.212;2023-04-07T16:37:51;98315.69;;;16.47;46.41
19259;BME280;9763;48.780;9.212;2023-04-07T16:41:17;98323.72;;;16.36;46.69
19259;BME280;9763;48.780;9.212;2023-04-07T16:44:41;98318.59;;;16.25;46.10
19259;BME280;9763;48.780;9.212;2023-04-07T16:48:05;98328.41;;;16.13;46.67
19259;BME280;9763;48.780;9.212;2023-04-07T16:51:28;98331.03;;;16.04;46.77
19259;BME280;9763;48.780;9.212;2023-04-07T16:54:53;98340.56;;;15.95;46.66
19259;BME280;9763;48.780;9.212;2023-04-07T16:58:18;98336.38;;;15.83;46.64
19259;BME280;9763;48.780;9.212;2023-04-07T17:01:42;98339.56;;;15.77;46.86
19259;BME280;9763;48.780;9.212;2023-04-07T17:05:07;98344.25;;;15.73;46.78
19259;BME280;9763;48.780;9.212;2023-04-07T17:08:30;98343.66;;;15.70;46.72
19259;BME280;9763;48.780;9.212;2023-04-07T17:11:55;98345.75;;;15.66;47.22
19259;BME280;9763;48.780;9.212;2023-04-07T17:15:19;98347.94;;;15.61;47.14
19259;BME280;9763;48.780;9.212;2023-04-07T17:18:43;98345.72;;;15.57;46.73
19259;BME280;9763;48.780;9.212;2023-04-07T17:22:08;98355.63;;;15.53;47.17
19259;BME280;9763;48.780;9.212;2023-04-07T17:25:32;98356.72;;;15.50;47.43
19259;BME280;9763;48.780;9.212;2023-04-07T17:28:56;98359.59;;;15.47;47.09
19259;BME280;9763;48.780;9.212;2023-04-07T17:32:21;98364.69;;;15.39;47.76
19259;BME280;9763;48.780;9.212;2023-04-07T17:35:45;98367.28;;;15.30;47.83
19259;BME280;9763;48.780;9.212;2023-04-07T17:39:11;98370.00;;;15.19;47.46
19259;BME280;9763;48.780;9.212;2023-04-07T17:42:34;98380.59;;;15.07;48.10
19259;BME280;9763;48.780;9.212;2023-04-07T17:45:58;98386.59;;;14.98;48.62
19259;BME280;9763;48.780;9.212;2023-04-07T17:49:23;98386.16;;;14.93;48.97
19259;BME280;9763;48.780;9.212;2023-04-07T17:52:48;98396.31;;;14.87;48.52
19259;BME280;9763;48.780;9.212;2023-04-07T17:56:13;98400.31;;;14.81;49.59
19259;BME280;9763;48.780;9.212;2023-04-07T17:59:37;98406.75;;;14.77;49.28
19259;BME280;9763;48.780;9.212;2023-04-07T18:03:00;98408.78;;;14.73;49.43
19259;BME280;9763;48.780;9.212;2023-04-07T18:06:26;98416.13;;;14.70;49.34
19259;BME280;9763;48.780;9.212;2023-04-07T18:09:51;98414.44;;;14.69;49.39
19259;BME280;9763;48.780;9.212;2023-04-07T18:13:15;98426.03;;;14.66;49.71
19259;BME280;9763;48.780;9.212;2023-04-07T18:16:39;98429.72;;;14.64;49.71
19259;BME280;9763;48.780;9.212;2023-04-07T18:20:03;98437.28;;;14.57;49.79
19259;BME280;9763;48.780;9.212;2023-04-07T18:23:28;98443.75;;;14.53;49.94